Latest Weather Observations for Port Lincoln Airport

IDS60801

Issued at 1:41 pm CST Thursday 25 April 2019 (issued every 10 minutes, with the page automatically refreshed every 10 minutes)

About weather observations | Map of weather stations | Latest weather observations for SA | Other Formats
Station Details ID: 018192 Name: PORT LINCOLN AWS Lat: -34.60 Lon: 135.88 Height: 8.5 m
Data from the previous 72 hours. | See also: Recent months at Port Lincoln Airport
Date/Time
CST
Temp
°C
App
Temp
°C
Dew
Point
°C
Rel
Hum
%
Delta-T
°C
Wind Press
QNH
hPa
Press
MSL
hPa
Rain since
9am
mm
Dir  Spd
km/h
Gust
km/h
Spd
kts
Gust
kts
25/01:30pm 21.4 18.1 10.9 51 5.7 W 19 28 10 15 1023.5 1023.5 0.0
25/01:00pm 20.3 18.6 12.3 60 4.5 SW 13 22 7 12 1024.1 1024.1 0.0
25/12:30pm 19.1 17.2 13.1 68 3.4 SW 15 20 8 11 1024.6 1024.6 0.0
25/12:00pm 18.7 15.9 13.3 71 3.0 SSW 20 26 11 14 1025.2 1025.2 0.0
25/11:30am 19.9 16.3 11.9 60 4.4 WSW 22 28 12 15 1025.4 1025.4 0.0
25/11:00am 19.9 16.7 11.9 60 4.4 WSW 20 26 11 14 1025.5 1025.5 0.0
25/10:30am 20.3 16.5 11.0 55 5.1 W 22 33 12 18 1025.7 1025.7 0.0
25/10:00am 19.2 17.0 12.0 63 4.0 WNW 15 22 8 12 1025.9 1025.9 0.0
25/09:30am 18.4 15.8 11.9 66 3.6 WNW 17 20 9 11 1026.2 1026.2 0.0
25/09:00am 16.6 14.8 12.2 75 2.4 NNW 13 17 7 9 1026.3 1026.3 0.0
25/08:30am 14.0 12.8 11.5 85 1.3 NNW 9 15 5 8 1026.4 1026.4 0.0
25/08:00am 12.8 10.8 11.4 91 0.7 NW 13 17 7 9 1026.1 1026.1 0.0
25/07:30am 11.4 9.1 10.6 95 0.4 NW 13 17 7 9 1025.8 1025.8 0.0
25/07:00am 10.4 7.8 9.5 94 0.4 NW 13 17 7 9 1025.7 1025.7 0.0
25/06:30am 10.8 7.5 9.7 93 0.6 NNW 17 20 9 11 1025.5 1025.5 0.0
25/06:00am 10.8 8.0 9.9 94 0.5 NNW 15 15 8 8 1025.3 1025.3 0.0
25/05:30am 10.9 8.4 9.8 93 0.6 NW 13 13 7 7 1025.2 1025.2 0.0
25/05:00am 11.2 8.8 10.1 93 0.6 NW 13 15 7 8 1025.2 1025.2 0.0
25/04:30am 11.2 9.2 10.0 92 0.6 WNW 11 13 6 7 1025.1 1025.1 0.0
25/04:00am 11.4 9.4 10.0 91 0.7 WNW 11 13 6 7 1025.1 1025.1 0.0
25/03:30am 11.6 9.9 10.0 90 0.8 WNW 9 11 5 6 1025.1 1025.1 0.0
25/03:00am 11.9 9.6 10.3 90 0.8 WNW 13 15 7 8 1025.3 1025.3 0.0
25/02:30am 12.2 10.2 10.1 87 1.1 WNW 11 15 6 8 1025.6 1025.6 0.0
25/02:00am 12.5 10.5 10.2 86 1.2 WNW 11 15 6 8 1025.7 1025.7 0.0
25/01:30am 14.6 13.2 10.8 78 2.0 WSW 9 13 5 7 1025.8 1025.8 0.0
25/01:00am 16.1 15.8 11.5 74 2.5 SW 4 9 2 5 1025.9 1025.9 0.0
25/12:30am 16.0 13.9 11.2 73 2.6 WSW 13 17 7 9 1026.1 1026.1 0.0
25/12:00am 16.1 14.7 10.8 71 2.8 WSW 9 13 5 7 1026.3 1026.3 0.0
 
Date/Time
CST
Temp
°C
App
Temp
°C
Dew
Point
°C
Rel
Hum
%
Delta-T
°C
Wind Press
QNH
hPa
Press
MSL
hPa
Rain since
9am
mm
Dir  Spd
km/h
Gust
km/h
Spd
kts
Gust
kts
24/11:30pm 16.5 14.7 10.8 69 3.0 WSW 11 15 6 8 1026.6 1026.6 0.0
24/11:00pm 16.5 14.7 11.0 70 2.9 SW 11 19 6 10 1026.9 1026.9 0.0
24/10:30pm 16.4 14.6 10.9 70 2.9 SW 11 17 6 9 1027.1 1027.1 0.0
24/10:00pm 16.2 14.9 11.4 73 2.6 SW 9 11 5 6 1027.2 1027.2 0.0
24/09:30pm 15.8 14.5 11.4 75 2.4 SW 9 13 5 7 1027.1 1027.1 0.0
24/09:00pm 15.0 13.0 11.4 79 1.9 WSW 13 15 7 8 1027.1 1027.1 0.0
24/08:30pm 15.6 13.6 11.4 76 2.2 WSW 13 17 7 9 1027.1 1027.1 0.0
24/08:00pm 15.3 13.5 10.9 75 2.3 WSW 11 15 6 8 1027.0 1027.0 0.0
24/07:30pm 15.4 13.6 10.8 74 2.4 WSW 11 15 6 8 1026.9 1026.9 0.0
24/07:00pm 16.8 14.4 11.5 71 2.9 SSW 15 20 8 11 1026.8 1026.8 0.0
24/06:30pm 17.2 15.6 11.5 69 3.1 SSW 11 15 6 8 1026.7 1026.7 0.0
24/06:00pm 17.4 14.4 11.9 70 3.0 S 19 22 10 12 1026.4 1026.4 0.0
24/05:30pm 17.7 14.4 10.8 64 3.7 SSW 19 22 10 12 1026.3 1026.3 0.0
24/05:00pm 17.7 14.0 11.5 67 3.4 S 22 26 12 14 1026.2 1026.2 0.0
24/04:30pm 18.0 14.8 11.3 65 3.6 S 19 24 10 13 1026.1 1026.1 0.0
24/04:00pm 18.1 13.7 11.7 66 3.5 S 26 32 14 17 1026.0 1026.0 0.0
24/03:30pm 18.8 13.6 11.6 63 3.9 S 30 35 16 19 1025.9 1025.9 0.0
24/03:00pm 19.5 13.8 11.0 58 4.6 S 32 37 17 20 1025.8 1025.8 0.0
24/02:30pm 19.1 14.0 10.6 58 4.6 SSE 28 35 15 19 1025.8 1025.8 0.0
24/02:00pm 19.6 14.8 10.3 55 5.0 S 26 35 14 19 1025.9 1025.9 0.0
24/01:30pm 20.6 16.1 12.6 60 4.5 S 28 32 15 17 1026.1 1026.1 0.0
24/01:00pm 19.2 14.9 12.0 63 4.0 S 26 33 14 18 1026.4 1026.4 0.0
24/12:30pm 19.4 17.5 13.1 67 3.5 SSE 15 20 8 11 1026.9 1026.9 0.0
24/12:00pm 18.4 17.2 12.8 70 3.1 SSE 11 19 6 10 1027.2 1027.2 0.0
24/11:30am 17.8 16.9 12.7 72 2.8 S 9 15 5 8 1027.4 1027.4 0.0
24/11:00am 17.7 17.6 12.2 70 3.0 SW 4 9 2 5 1027.6 1027.6 0.0
24/10:30am 17.9 17.4 12.1 69 3.2 S 6 9 3 5 1027.6 1027.6 0.0
24/10:00am 17.1 16.0 12.0 72 2.8 SE 9 11 5 6 1027.7 1027.7 0.0
24/09:30am 16.9 16.4 12.0 73 2.7 SE 6 13 3 7 1027.7 1027.7 0.0
24/09:00am 16.3 16.0 12.7 79 2.0 WSW 6 7 3 4 1027.7 1027.7 0.0
24/08:30am 15.5 14.4 13.0 85 1.4 SSW 11 15 6 8 1027.7 1027.7 0.0
24/08:00am 14.6 14.2 13.1 91 0.8 NW 7 11 4 6 1027.6 1027.6 0.0
24/07:30am 14.3 13.5 13.0 92 0.7 WNW 9 11 5 6 1027.2 1027.2 0.0
24/07:00am 14.1 12.1 12.8 92 0.7 WSW 15 20 8 11 1026.9 1026.9 0.0
24/06:30am 14.1 12.1 12.8 92 0.7 SW 15 19 8 10 1026.7 1026.7 0.0
24/06:00am 14.1 12.4 12.5 90 0.9 WSW 13 17 7 9 1026.3 1026.3 0.0
24/05:30am 14.3 13.4 12.5 89 1.0 SSW 9 11 5 6 1026.3 1026.3 0.0
24/05:00am 13.5 12.6 12.6 94 0.5 SW 9 11 5 6 1026.1 1026.1 0.0
24/04:30am 13.2 11.8 12.3 94 0.5 SW 11 13 6 7 1025.9 1025.9 0.0
24/04:00am 13.5 12.6 12.6 94 0.5 SW 9 13 5 7 1026.0 1026.0 0.0
24/03:30am 13.9 12.4 13.1 95 0.4 SSW 13 17 7 9 1026.1 1026.1 0.0
24/03:00am 13.9 12.0 13.1 95 0.4 SSW 15 19 8 10 1026.1 1026.1 0.0
24/02:30am 14.7 12.6 13.7 94 0.6 S 17 20 9 11 1026.0 1026.0 0.0
24/02:24am 14.8 13.2 14.0 95 0.4 S 15 20 8 11 1026.0 1026.0 0.0
24/02:07am 14.9 14.1 14.1 95 0.5 SSW 11 15 6 8 1026.2 1026.2 0.0
24/02:00am 14.9 13.7 14.1 95 0.5 SSW 13 15 7 8 1026.3 1026.3 0.0
24/01:30am 15.2 13.3 14.1 93 0.6 SE 17 20 9 11 1026.6 1026.6 0.0
24/01:00am 15.0 13.6 13.5 91 0.8 SSW 13 15 7 8 1026.6 1026.6 0.0
24/12:30am 14.1 13.6 12.7 91 0.8 SSW 7 11 4 6 1026.8 1026.8 0.0
24/12:00am 14.4 12.7 12.6 89 1.0 SSW 13 15 7 8 1026.8 1026.8 0.0
 
Date/Time
CST
Temp
°C
App
Temp
°C
Dew
Point
°C
Rel
Hum
%
Delta-T
°C
Wind Press
QNH
hPa
Press
MSL
hPa
Rain since
9am
mm
Dir  Spd
km/h
Gust
km/h
Spd
kts
Gust
kts
23/11:30pm 15.3 13.7 12.8 85 1.4 S 13 19 7 10 1027.0 1027.0 0.0
23/11:00pm 16.1 13.3 12.7 80 1.9 SE 19 26 10 14 1027.4 1027.4 0.0
23/10:30pm 16.2 14.3 12.9 81 1.8 SSE 15 20 8 11 1027.6 1027.6 0.0
23/10:00pm 15.6 14.4 12.7 83 1.6 SSW 11 15 6 8 1027.5 1027.5 0.0
23/09:30pm 15.7 13.9 13.2 85 1.4 S 15 19 8 10 1027.6 1027.6 0.0
23/09:00pm 16.3 14.6 12.5 78 2.1 S 13 15 7 8 1027.7 1027.7 0.0
23/08:30pm 16.1 14.0 12.3 78 2.1 SSE 15 19 8 10 1027.9 1027.9 0.0
23/08:00pm 16.3 14.6 12.3 77 2.2 SSE 13 17 7 9 1027.9 1027.9 0.0
23/07:30pm 16.1 13.0 11.7 75 2.4 SE 19 22 10 12 1027.8 1027.8 0.0
23/07:00pm 16.3 13.3 11.9 75 2.4 SSE 19 22 10 12 1027.7 1027.7 0.0
23/06:30pm 16.6 13.9 11.7 73 2.6 SSE 17 20 9 11 1027.5 1027.5 0.0
23/06:00pm 16.9 14.0 11.0 68 3.1 SE 17 24 9 13 1027.2 1027.2 0.0
23/05:30pm 17.1 13.7 10.7 66 3.4 SE 19 24 10 13 1027.1 1027.1 0.0
23/05:00pm 17.2 13.5 10.1 63 3.8 ESE 20 26 11 14 1027.0 1027.0 0.0
23/04:30pm 17.7 13.7 10.3 62 3.9 SE 22 26 12 14 1027.0 1027.0 0.0
23/04:00pm 17.8 13.6 9.7 59 4.3 SE 22 32 12 17 1026.9 1026.9 0.0
23/03:30pm 18.2 13.6 9.5 57 4.5 SE 24 32 13 17 1026.8 1026.8 0.0
23/03:00pm 17.9 12.8 9.3 57 4.5 SE 26 32 14 17 1027.0 1027.0 0.0
23/02:30pm 18.2 13.9 9.3 56 4.6 SE 22 30 12 16 1027.0 1027.0 0.0
23/02:00pm 18.1 13.8 9.5 57 4.5 SE 22 30 12 16 1027.2 1027.2 0.0
23/01:30pm 18.6 14.5 10.2 58 4.5 SE 22 28 12 15 1027.6 1027.6 0.0
23/01:00pm 17.8 13.9 9.4 58 4.4 SE 20 30 11 16 1028.0 1028.0 0.0
23/12:30pm 17.9 13.6 9.5 58 4.4 SE 22 28 12 15 1028.3 1028.3 0.0
23/12:00pm 19.0 14.3 9.2 53 5.1 SE 24 30 13 16 1028.5 1028.5 0.0
23/11:30am 17.9 14.0 9.5 58 4.4 SE 20 26 11 14 1028.9 1028.9 0.0
23/11:00am 18.1 13.5 9.5 57 4.5 SE 24 30 13 16 1029.0 1029.0 0.0
23/10:30am 17.3 13.6 10.0 62 3.8 SE 20 24 11 13 1029.1 1029.1 0.0
23/10:00am 17.0 13.4 9.9 63 3.7 SE 19 24 10 13 1029.2 1029.2 0.0
23/09:30am 17.2 13.3 9.4 60 4.0 SE 20 26 11 14 1029.3 1029.3 0.0
23/09:00am 17.1 12.8 9.5 61 3.9 SE 22 28 12 15 1029.2 1029.2 0.0
23/08:30am 16.9 13.5 9.3 61 3.9 ESE 17 22 9 12 1028.9 1028.9 0.0
23/08:00am 16.4 12.7 9.3 63 3.7 SE 19 26 10 14 1028.5 1028.5 0.0
23/07:30am 15.6 12.2 9.3 66 3.2 ESE 17 22 9 12 1028.1 1028.1 0.0
23/07:00am 15.6 12.2 9.3 66 3.2 SE 17 20 9 11 1027.9 1027.9 0.0
23/06:30am 14.9 11.9 9.3 69 2.9 ESE 15 20 8 11 1027.4 1027.4 0.0
23/06:00am 14.8 11.2 8.5 66 3.2 ESE 17 22 9 12 1027.4 1027.4 0.0
23/05:30am 14.8 11.5 9.6 71 2.7 ESE 17 20 9 11 1027.2 1027.2 0.0
23/05:00am 14.3 11.4 9.5 73 2.5 ESE 15 17 8 9 1027.2 1027.2 0.0
23/04:30am 12.8 9.6 8.5 75 2.1 ESE 15 17 8 9 1027.2 1027.2 0.0
23/04:00am 14.1 10.6 8.9 71 2.6 SE 17 20 9 11 1027.1 1027.1 0.0
23/03:30am 14.7 11.3 9.3 70 2.7 ESE 17 20 9 11 1027.2 1027.2 0.0
23/03:00am 15.3 12.1 9.9 70 2.8 ESE 17 20 9 11 1027.3 1027.3 0.0
23/02:30am 15.0 12.3 10.2 73 2.5 SE 15 17 8 9 1027.4 1027.4 0.0
23/02:00am 14.1 10.9 10.1 77 2.1 ESE 17 19 9 10 1027.6 1027.6 0.0
23/01:30am 13.8 10.9 9.6 76 2.1 ESE 15 19 8 10 1027.9 1027.9 0.0
23/01:00am 13.8 9.9 8.8 72 2.5 SE 19 22 10 12 1028.1 1028.1 0.0
23/12:30am 13.8 10.5 9.5 75 2.2 SE 17 20 9 11 1028.0 1028.0 0.0
23/12:00am 14.0 10.7 9.4 74 2.3 ESE 17 20 9 11 1027.9 1027.9 0.0
 
Date/Time
CST
Temp
°C
App
Temp
°C
Dew
Point
°C
Rel
Hum
%
Delta-T
°C
Wind Press
QNH
hPa
Press
MSL
hPa
Rain since
9am
mm
Dir  Spd
km/h
Gust
km/h
Spd
kts
Gust
kts
22/11:30pm 14.9 11.2 9.5 70 2.8 SE 19 24 10 13 1028.0 1028.0 0.0
22/11:00pm 15.0 11.5 10.8 76 2.2 SSE 20 26 11 14 1028.2 1028.2 0.0
22/10:30pm 13.1 10.8 10.6 85 1.3 SSW 13 13 7 7 1028.4 1028.4 0.0
22/10:00pm 13.4 11.1 10.4 82 1.6 SSW 13 17 7 9 1028.4 1028.4 0.0
22/09:30pm 15.0 11.5 11.0 77 2.1 SSE 20 24 11 13 1028.5 1028.5 0.0
22/09:00pm 14.0 10.9 10.2 78 2.0 S 17 22 9 12 1028.5 1028.5 0.0
22/08:30pm 15.1 11.6 10.9 76 2.2 SSE 20 28 11 15 1028.7 1028.7 0.0
22/08:00pm 14.2 11.3 9.8 75 2.3 S 15 20 8 11 1028.5 1028.5 0.0
22/07:30pm 15.3 11.4 9.4 68 3.0 S 20 28 11 15 1028.2 1028.2 0.0
22/07:00pm 15.3 11.5 9.0 66 3.2 SSE 19 24 10 13 1027.8 1027.8 0.0
22/06:30pm 15.4 11.4 8.9 65 3.3 SSE 20 24 11 13 1027.8 1027.8 0.0
22/06:00pm 15.6 11.7 8.6 63 3.5 SSE 19 22 10 12 1027.6 1027.6 0.0
22/05:30pm 16.4 12.0 7.6 56 4.4 SSE 20 26 11 14 1027.3 1027.3 0.0
22/05:00pm 17.1 12.3 7.5 53 4.8 SE 22 28 12 15 1027.0 1027.0 0.0
22/04:30pm 17.3 13.0 7.9 54 4.7 SE 20 26 11 14 1026.8 1026.8 0.0
22/04:00pm 17.3 12.4 7.1 51 5.1 SE 22 28 12 15 1026.6 1026.6 0.0
22/03:30pm 17.8 13.5 7.8 52 5.0 SE 20 28 11 15 1026.7 1026.7 0.0
22/03:00pm 18.2 13.7 8.5 53 5.0 SE 22 28 12 15 1026.6 1026.6 0.0
22/02:30pm 17.8 13.2 8.1 53 4.9 ESE 22 28 12 15 1026.5 1026.5 0.0
22/02:00pm 18.3 14.2 8.6 53 5.0 SE 20 26 11 14 1026.5 1026.5 0.0

Other formats

Comma delimited format used in spreadsheet applications
http://www.bom.gov.au/fwo/IDS60801/IDS60801.95661.axf

JavaScript Object Notation format (JSON) in row-major order
http://www.bom.gov.au/fwo/IDS60801/IDS60801.95661.json

Data quality

Most of these data are generated automatically and are frequently updated. Quality checks on data are not normally performed. It is possible for incorrect values to appear. Refer to information at About Latest Weather Observations and please check the disclaimer before using these data.